Time;durP1;ratioP1;P1;durP2;ratioP2;P2;SDS_P1;SDS_P2;PMS_P1;PMS_P2;Temp;Humidity;BMP_temperature;BMP_pressure;BME280_temperature;BME280_humidity;BME280_pressure;Samples;Min_cycle;Max_cycle;Signal;HPM_P1;HPM_P2
2021/07/18 13:26:33;;;;;;;12.32;5.30;;;;;;;;;;5100758;27;1567281;-87
2021/07/18 13:29:16;;;;;;;9.60;4.40;;;;;;;;;;5130734;28;20043;-87
2021/07/18 13:31:50;;;;;;;10.32;4.28;;;;;;;;;;5132118;27;20072;-87
2021/07/18 13:34:19;;;;;;;7.93;3.95;;;;;;;;;;5130623;28;20020;-85
2021/07/18 13:36:45;;;;;;;10.02;4.80;;;;;;;;;;5131932;27;20027;-85
2021/07/18 13:39:14;;;;;;;11.52;4.20;;;;;;;;;;5131730;27;20047;-86
2021/07/18 13:41:41;;;;;;;5.95;3.55;;;;;;;;;;5131959;27;20474;-86
2021/07/18 13:44:09;;;;;;;5.43;3.83;;;;;;;;;;5131597;27;20109;-87
2021/07/18 13:46:35;;;;;;;8.48;4.25;;;;;;;;;;5131610;27;20046;-87
2021/07/18 13:49:01;;;;;;;9.95;5.15;;;;;;;;;;5131539;27;20526;-83
2021/07/18 13:51:29;;;;;;;10.25;4.95;;;;;;;;;;5131724;27;20031;-83
2021/07/18 13:53:56;;;;;;;11.05;5.43;;;;;;;;;;5131434;27;20034;-83
2021/07/18 13:56:21;;;;;;;8.32;3.55;;;;;;;;;;5131544;27;20383;-84
2021/07/18 13:58:47;;;;;;;8.98;4.53;;;;;;;;;;5131442;27;20035;-83
2021/07/18 14:01:13;;;;;;;8.75;4.20;;;;;;;;;;5131530;27;20019;-83
2021/07/18 14:03:38;;;;;;;8.75;4.35;;;;;;;;;;5130024;28;20039;-83
2021/07/18 14:06:06;;;;;;;6.82;4.22;;;;;;;;;;5131438;27;20032;-83
2021/07/18 14:08:32;;;;;;;8.77;4.88;;;;;;;;;;5131394;27;20546;-83
2021/07/18 14:10:58;;;;;;;8.27;4.57;;;;;;;;;;5131109;27;20102;-85
2021/07/18 14:13:23;;;;;;;11.10;5.25;;;;;;;;;;5131071;27;20026;-84
2021/07/18 14:15:49;;;;;;;10.60;5.07;;;;;;;;;;5130083;28;20051;-84
2021/07/18 14:18:15;;;;;;;11.00;4.97;;;;;;;;;;5131288;27;20467;-84
2021/07/18 14:20:40;;;;;;;11.23;5.38;;;;;;;;;;5130895;27;20072;-84
2021/07/18 14:23:12;;;;;;;10.38;7.10;;;;;;;;;;5130926;27;20043;-84
2021/07/18 14:25:38;;;;;;;9.70;5.82;;;;;;;;;;5130539;27;20040;-84
2021/07/18 14:28:05;;;;;;;8.82;5.30;;;;;;;;;;5130887;27;20016;-84
2021/07/18 14:30:32;;;;;;;8.40;5.20;;;;;;;;;;5129368;27;20015;-83
2021/07/18 14:32:59;;;;;;;7.72;5.82;;;;;;;;;;5133094;27;20027;-85
2021/07/18 14:35:26;;;;;;;9.27;5.97;;;;;;;;;;5130220;27;20023;-84
2021/07/18 14:37:53;;;;;;;13.40;5.38;;;;;;;;;;5100007;28;20463;-84
2021/07/18 14:40:19;;;;;;;10.70;5.65;;;;;;;;;;5096822;28;20056;-83
2021/07/18 14:42:46;;;;;;;10.63;6.28;;;;;;;;;;5096729;28;20540;-85
2021/07/18 14:45:13;;;;;;;12.93;5.68;;;;;;;;;;5096559;28;20077;-83
2021/07/18 14:47:41;;;;;;;11.57;6.45;;;;;;;;;;5096507;28;20016;-84
2021/07/18 14:50:08;;;;;;;8.88;6.53;;;;;;;;;;5096296;28;20070;-84
2021/07/18 14:52:35;;;;;;;8.60;4.97;;;;;;;;;;5096338;28;20020;-84
2021/07/18 14:55:03;;;;;;;10.85;4.05;;;;;;;;;;5096371;28;20029;-84
2021/07/18 14:57:29;;;;;;;7.68;5.00;;;;;;;;;;5096216;28;20016;-84
2021/07/18 14:59:54;;;;;;;10.00;4.13;;;;;;;;;;5094911;28;20458;-84
2021/07/18 15:02:20;;;;;;;10.05;5.32;;;;;;;;;;5096310;28;20043;-85
2021/07/18 15:04:46;;;;;;;8.20;4.35;;;;;;;;;;5096736;28;20028;-84
2021/07/18 15:07:13;;;;;;;7.60;4.32;;;;;;;;;;5096118;28;20020;-91
2021/07/18 15:09:39;;;;;;;10.75;4.57;;;;;;;;;;5095983;28;20356;-83
2021/07/18 15:12:05;;;;;;;9.95;4.93;;;;;;;;;;5096005;28;20031;-83
2021/07/18 15:14:31;;;;;;;9.77;5.07;;;;;;;;;;5095892;28;20024;-83
2021/07/18 15:16:57;;;;;;;10.82;4.55;;;;;;;;;;5095840;28;20020;-83
2021/07/18 15:19:23;;;;;;;8.27;3.70;;;;;;;;;;5095808;28;20020;-84
2021/07/18 15:21:49;;;;;;;10.40;4.90;;;;;;;;;;5095939;28;20035;-84
2021/07/18 15:24:15;;;;;;;8.77;3.97;;;;;;;;;;5095441;28;20028;-85
2021/07/18 15:26:41;;;;;;;6.50;3.60;;;;;;;;;;5096016;28;20024;-83
2021/07/18 15:29:11;;;;;;;8.50;3.88;;;;;;;;;;5095652;28;20107;-83
2021/07/18 15:31:37;;;;;;;15.60;4.22;;;;;;;;;;5095727;28;20024;-83
2021/07/18 15:34:02;;;;;;;7.10;3.70;;;;;;;;;;5095472;28;20527;-84
2021/07/18 15:36:28;;;;;;;10.27;5.18;;;;;;;;;;5095519;28;20027;-83
2021/07/18 15:38:57;;;;;;;8.77;4.10;;;;;;;;;;5095653;28;20016;-82
2021/07/18 15:41:26;;;;;;;;;;;;;;;;;;5095851;28;20020;-83
2021/07/18 15:43:52;;;;;;;6.75;5.05;;;;;;;;;;5095487;28;20378;-83
2021/07/18 15:46:19;;;;;;;7.88;4.88;;;;;;;;;;5095202;28;20055;-84
2021/07/18 15:48:44;;;;;;;8.80;5.97;;;;;;;;;;5094292;28;20031;-84
2021/07/18 15:51:10;;;;;;;7.80;4.40;;;;;;;;;;5095497;28;20024;-83
2021/07/18 15:53:36;;;;;;;10.38;4.03;;;;;;;;;;5095141;28;20376;-83
2021/07/18 15:56:01;;;;;;;8.90;6.20;;;;;;;;;;5095101;28;20036;-83
2021/07/18 15:58:27;;;;;;;6.00;3.42;;;;;;;;;;5095107;28;20028;-83
2021/07/18 16:00:53;;;;;;;6.82;4.60;;;;;;;;;;5093694;28;20031;-83
2021/07/18 16:03:19;;;;;;;13.48;4.30;;;;;;;;;;5094995;28;20027;-83
2021/07/18 16:05:45;;;;;;;6.82;4.82;;;;;;;;;;5094915;28;20067;-83
2021/07/18 16:08:11;;;;;;;7.85;3.45;;;;;;;;;;5094885;28;20376;-83
2021/07/18 16:10:36;;;;;;;10.68;6.63;;;;;;;;;;5094829;28;20024;-83
2021/07/18 16:13:02;;;;;;;11.05;4.35;;;;;;;;;;5094731;28;20028;-83
2021/07/18 16:15:28;;;;;;;10.13;3.95;;;;;;;;;;5094796;28;20024;-83
2021/07/18 16:17:53;;;;;;;11.82;6.47;;;;;;;;;;5094685;28;20092;-83
2021/07/18 16:20:19;;;;;;;15.27;4.57;;;;;;;;;;5094590;28;20024;-83
2021/07/18 16:22:45;;;;;;;12.90;6.25;;;;;;;;;;5094659;28;20157;-83
2021/07/18 16:25:11;;;;;;;7.25;4.78;;;;;;;;;;5094467;28;20040;-83
2021/07/18 16:27:37;;;;;;;11.65;5.40;;;;;;;;;;5094486;28;20436;-84
2021/07/18 16:30:07;;;;;;;10.57;4.60;;;;;;;;;;5094549;28;20027;-83
2021/07/18 16:32:33;;;;;;;9.35;5.05;;;;;;;;;;5094584;28;20038;-84
2021/07/18 16:34:58;;;;;;;9.50;4.78;;;;;;;;;;5094316;28;20027;-84
2021/07/18 16:37:24;;;;;;;17.40;4.63;;;;;;;;;;5094493;28;20032;-83
2021/07/18 16:39:50;;;;;;;10.75;6.88;;;;;;;;;;5094437;28;20028;-86
2021/07/18 16:42:16;;;;;;;14.80;5.07;;;;;;;;;;5094434;28;20427;-82
2021/07/18 16:44:45;;;;;;;8.30;4.30;;;;;;;;;;5094372;28;20077;-84
2021/07/18 16:47:13;;;;;;;15.30;5.05;;;;;;;;;;5094544;28;20499;-83
2021/07/18 16:49:38;;;;;;;13.32;5.88;;;;;;;;;;5094504;28;20107;-85
2021/07/18 16:52:04;;;;;;;9.88;6.68;;;;;;;;;;5094102;28;20060;-82
2021/07/18 16:54:30;;;;;;;10.20;7.90;;;;;;;;;;5094152;28;20035;-84
2021/07/18 16:56:55;;;;;;;9.55;4.57;;;;;;;;;;5094101;28;20032;-84
2021/07/18 16:59:21;;;;;;;9.15;4.20;;;;;;;;;;5096711;28;20020;-83
2021/07/18 17:01:46;;;;;;;9.85;4.95;;;;;;;;;;5093955;28;20099;-84
2021/07/18 17:04:13;;;;;;;10.45;7.90;;;;;;;;;;5093897;28;20024;-83
2021/07/18 17:06:42;;;;;;;18.85;8.50;;;;;;;;;;5093846;28;20027;-82
2021/07/18 17:09:07;;;;;;;8.82;4.70;;;;;;;;;;5093860;28;20146;-83
2021/07/18 17:11:33;;;;;;;9.40;5.32;;;;;;;;;;5093918;28;20478;-83
2021/07/18 17:13:59;;;;;;;10.07;5.40;;;;;;;;;;5093773;28;20081;-82
2021/07/18 17:16:25;;;;;;;9.75;8.05;;;;;;;;;;5092508;28;20024;-84
2021/07/18 17:18:51;;;;;;;11.10;4.80;;;;;;;;;;5093670;28;20375;-85
2021/07/18 17:21:19;;;;;;;13.05;6.25;;;;;;;;;;5093680;28;20020;-83
2021/07/18 17:23:45;;;;;;;15.35;7.22;;;;;;;;;;5093744;28;20027;-83
2021/07/18 17:26:12;;;;;;;10.65;6.03;;;;;;;;;;5093630;28;20048;-83
2021/07/18 17:28:38;;;;;;;9.30;6.32;;;;;;;;;;5109382;28;20375;-81
2021/07/18 17:31:06;;;;;;;12.57;6.65;;;;;;;;;;5093712;28;20077;-82
2021/07/18 17:33:32;;;;;;;12.20;9.52;;;;;;;;;;5093658;28;20107;-80
2021/07/18 17:35:58;;;;;;;17.20;7.03;;;;;;;;;;5093824;28;20074;-80
2021/07/18 17:38:24;;;;;;;15.63;5.95;;;;;;;;;;5097308;28;20024;-81
2021/07/18 17:40:50;;;;;;;10.55;5.22;;;;;;;;;;5093543;28;20060;-81
2021/07/18 17:43:16;;;;;;;12.15;6.35;;;;;;;;;;5092180;28;20048;-80
2021/07/18 17:45:43;;;;;;;10.57;7.60;;;;;;;;;;5093500;28;20029;-81
2021/07/18 17:48:10;;;;;;;11.15;6.10;;;;;;;;;;5093440;28;20037;-82
2021/07/18 17:50:37;;;;;;;12.48;6.30;;;;;;;;;;5094197;28;20073;-80
2021/07/18 17:53:04;;;;;;;11.48;5.60;;;;;;;;;;5093834;28;20028;-81
2021/07/18 17:55:30;;;;;;;12.93;5.78;;;;;;;;;;5093533;28;20463;-81
2021/07/18 17:57:56;;;;;;;12.38;9.77;;;;;;;;;;5093495;28;20031;-82
2021/07/18 18:00:22;;;;;;;11.55;5.82;;;;;;;;;;5093607;28;20028;-80
2021/07/18 18:02:48;;;;;;;11.90;8.75;;;;;;;;;;5093310;28;20086;-80
2021/07/18 18:05:15;;;;;;;11.23;6.47;;;;;;;;;;5093419;28;20467;-81
2021/07/18 18:07:41;;;;;;;12.30;6.18;;;;;;;;;;5093653;28;20024;-82
2021/07/18 18:10:10;;;;;;;12.02;9.18;;;;;;;;;;5093393;28;20024;-81
2021/07/18 18:12:36;;;;;;;12.65;6.28;;;;;;;;;;5096608;28;20028;-81
2021/07/18 18:15:01;;;;;;;11.15;6.43;;;;;;;;;;5097235;28;20038;-80
2021/07/18 18:17:27;;;;;;;12.10;6.07;;;;;;;;;;5096969;28;20050;-80
2021/07/18 18:19:53;;;;;;;12.77;10.05;;;;;;;;;;5096883;28;20105;-81
2021/07/18 18:22:19;;;;;;;12.57;9.48;;;;;;;;;;5096946;28;20073;-89
2021/07/18 18:24:45;;;;;;;12.23;6.18;;;;;;;;;;5096591;28;20127;-81
2021/07/18 18:27:12;;;;;;;14.25;9.90;;;;;;;;;;5096851;28;20032;-81
2021/07/18 18:29:38;;;;;;;11.70;9.70;;;;;;;;;;5097236;28;20017;-81
2021/07/18 18:32:04;;;;;;;10.95;6.22;;;;;;;;;;5096764;28;20065;-81
2021/07/18 18:34:31;;;;;;;35.35;18.65;;;;;;;;;;5096623;28;20502;-81
2021/07/18 18:36:56;;;;;;;36.25;21.30;;;;;;;;;;5096574;28;20467;-82
2021/07/18 18:39:23;;;;;;;19.83;13.88;;;;;;;;;;5097031;28;20024;-82
2021/07/18 18:41:50;;;;;;;11.85;8.07;;;;;;;;;;5102980;28;20019;-81
2021/07/18 18:44:16;;;;;;;13.13;8.75;;;;;;;;;;5111440;28;20429;-81
2021/07/18 18:46:43;;;;;;;12.93;9.90;;;;;;;;;;5107879;28;20077;-82
2021/07/18 18:49:10;;;;;;;13.00;7.32;;;;;;;;;;5121177;28;20047;-82
2021/07/18 18:51:36;;;;;;;14.40;10.70;;;;;;;;;;5116426;28;20020;-82
2021/07/18 18:55:59;;;;;;;9.98;6.75;;;;;;;;;;5112057;27;20389;-82
2021/07/18 18:58:24;;;;;;;10.68;6.95;;;;;;;;;;5111553;28;20050;-84
2021/07/18 19:00:51;;;;;;;18.75;7.13;;;;;;;;;;5111572;28;20024;-83
2021/07/18 19:03:18;;;;;;;12.68;7.30;;;;;;;;;;5110246;28;20024;-84
2021/07/18 19:05:45;;;;;;;13.52;8.30;;;;;;;;;;5111521;28;20093;-81
2021/07/18 19:08:12;;;;;;;13.50;8.40;;;;;;;;;;5111527;28;20027;-84
2021/07/18 19:10:37;;;;;;;19.25;8.70;;;;;;;;;;5111530;28;20049;-85
2021/07/18 19:13:04;;;;;;;12.85;8.15;;;;;;;;;;5113437;28;20550;-85
2021/07/18 19:15:29;;;;;;;15.45;11.25;;;;;;;;;;5111159;28;20034;-85
2021/07/18 19:17:55;;;;;;;13.30;8.38;;;;;;;;;;5111086;28;20028;-85
2021/07/18 19:20:21;;;;;;;15.02;8.40;;;;;;;;;;5111057;28;20153;-84
2021/07/18 19:22:47;;;;;;;14.05;8.88;;;;;;;;;;5111074;28;20486;-85
2021/07/18 19:25:13;;;;;;;13.50;10.13;;;;;;;;;;5111003;28;20099;-84
2021/07/18 19:27:39;;;;;;;13.25;8.60;;;;;;;;;;5111098;28;20540;-84
2021/07/18 19:30:08;;;;;;;13.32;8.48;;;;;;;;;;5111302;28;20024;-83
2021/07/18 19:32:34;;;;;;;16.73;8.23;;;;;;;;;;5110994;28;20077;-85
2021/07/18 19:35:00;;;;;;;16.83;8.10;;;;;;;;;;5110825;28;20034;-84
2021/07/18 19:37:26;;;;;;;12.30;8.13;;;;;;;;;;5110756;28;20024;-84
2021/07/18 19:39:51;;;;;;;16.40;9.30;;;;;;;;;;5110754;28;20016;-83
2021/07/18 19:42:19;;;;;;;12.95;8.55;;;;;;;;;;5110677;28;20028;-84
2021/07/18 19:44:44;;;;;;;18.20;9.10;;;;;;;;;;5110699;28;20038;-84
2021/07/18 19:47:11;;;;;;;13.45;9.15;;;;;;;;;;5109340;28;20027;-84
2021/07/18 19:49:37;;;;;;;13.18;7.93;;;;;;;;;;5110968;28;20027;-85
2021/07/18 19:52:03;;;;;;;13.02;7.93;;;;;;;;;;5110584;28;20020;-85
2021/07/18 19:54:28;;;;;;;17.58;8.65;;;;;;;;;;5110238;28;20101;-85
2021/07/18 19:56:54;;;;;;;12.27;8.70;;;;;;;;;;5110351;28;20469;-84
2021/07/18 19:59:20;;;;;;;14.00;10.23;;;;;;;;;;5109077;28;20480;-85
2021/07/18 20:01:48;;;;;;;19.55;9.85;;;;;;;;;;5110229;28;20026;-83
2021/07/18 20:04:13;;;;;;;14.23;9.60;;;;;;;;;;5110363;28;20477;-85
2021/07/18 20:06:39;;;;;;;14.52;9.38;;;;;;;;;;5100583;28;20024;-84
2021/07/18 20:09:05;;;;;;;12.15;8.40;;;;;;;;;;5096696;28;20032;-84
2021/07/18 20:11:32;;;;;;;14.10;8.63;;;;;;;;;;5096539;28;20024;-85
2021/07/18 20:13:58;;;;;;;14.98;8.90;;;;;;;;;;5096341;28;20032;-84
2021/07/18 20:16:24;;;;;;;15.35;9.18;;;;;;;;;;5096709;28;20031;-85
2021/07/18 20:18:50;;;;;;;16.00;9.45;;;;;;;;;;5097118;28;20073;-85
2021/07/18 20:21:17;;;;;;;11.30;8.30;;;;;;;;;;5097063;28;20070;-86
2021/07/18 20:23:43;;;;;;;14.02;9.00;;;;;;;;;;5096645;28;20048;-84
2021/07/18 20:26:09;;;;;;;13.48;8.52;;;;;;;;;;5097020;28;20044;-84
2021/07/18 20:28:35;;;;;;;12.45;8.98;;;;;;;;;;5096627;28;20051;-85
2021/07/18 20:31:01;;;;;;;14.40;9.05;;;;;;;;;;5095207;28;20016;-84
2021/07/18 20:33:28;;;;;;;12.63;9.48;;;;;;;;;;5096768;28;20028;-84
2021/07/18 20:35:54;;;;;;;12.18;8.38;;;;;;;;;;5096455;28;20057;-85
2021/07/18 20:38:20;;;;;;;15.30;9.02;;;;;;;;;;5096461;28;20491;-86
2021/07/18 20:40:45;;;;;;;15.30;10.30;;;;;;;;;;5096023;28;20024;-85
2021/07/18 20:43:12;;;;;;;14.27;9.27;;;;;;;;;;5096063;28;20101;-86
2021/07/18 20:45:38;;;;;;;13.98;10.35;;;;;;;;;;5095905;28;20028;-84
2021/07/18 20:48:04;;;;;;;16.00;10.70;;;;;;;;;;5096089;28;20023;-85
2021/07/18 20:50:30;;;;;;;13.65;9.80;;;;;;;;;;5096014;28;20024;-84
2021/07/18 20:52:56;;;;;;;15.32;10.23;;;;;;;;;;5095709;28;20523;-85
2021/07/18 20:55:21;;;;;;;13.25;10.27;;;;;;;;;;5095540;28;20048;-85
2021/07/18 20:57:47;;;;;;;12.95;9.52;;;;;;;;;;5095562;28;20387;-85
2021/07/18 21:00:13;;;;;;;14.65;9.85;;;;;;;;;;5095571;28;20042;-84
2021/07/18 21:02:39;;;;;;;16.35;10.50;;;;;;;;;;5096613;28;20024;-85
2021/07/18 21:05:07;;;;;;;11.55;8.77;;;;;;;;;;5095834;28;20030;-85
2021/07/18 21:07:33;;;;;;;13.63;9.30;;;;;;;;;;5095602;28;20035;-85
2021/07/18 21:09:59;;;;;;;13.30;9.43;;;;;;;;;;5077361;28;20028;-86
2021/07/18 21:12:25;;;;;;;12.15;8.30;;;;;;;;;;5095350;28;20111;-85
2021/07/18 21:14:50;;;;;;;13.52;10.18;;;;;;;;;;5095201;28;20111;-84
2021/07/18 21:17:16;;;;;;;15.20;8.85;;;;;;;;;;5094596;28;20028;-85
2021/07/18 21:19:42;;;;;;;15.00;9.30;;;;;;;;;;5095192;28;20069;-85
2021/07/18 21:22:07;;;;;;;16.13;9.98;;;;;;;;;;5093946;28;20088;-84
2021/07/18 21:24:33;;;;;;;15.93;10.65;;;;;;;;;;5095116;28;20064;-85
2021/07/18 21:26:59;;;;;;;17.45;10.32;;;;;;;;;;5095015;28;20062;-84
2021/07/18 21:29:25;;;;;;;17.77;10.00;;;;;;;;;;5095119;28;20024;-85
2021/07/18 21:31:53;;;;;;;15.85;9.38;;;;;;;;;;5095033;28;20043;-87
2021/07/18 21:34:19;;;;;;;18.83;9.77;;;;;;;;;;5094889;28;20028;-86
2021/07/18 21:36:44;;;;;;;14.07;9.80;;;;;;;;;;5094923;28;20146;-86
2021/07/18 21:39:10;;;;;;;18.02;8.90;;;;;;;;;;5094855;28;20043;-84
2021/07/18 21:41:36;;;;;;;14.45;10.50;;;;;;;;;;5094768;28;20490;-85
2021/07/18 21:44:01;;;;;;;11.35;8.95;;;;;;;;;;5094678;28;20028;-85
2021/07/18 21:46:27;;;;;;;14.23;9.93;;;;;;;;;;5094691;28;20388;-84
2021/07/18 21:48:53;;;;;;;14.52;10.13;;;;;;;;;;5094731;28;20063;-85
2021/07/18 21:51:18;;;;;;;13.10;9.02;;;;;;;;;;5094601;28;20027;-85
2021/07/18 21:53:44;;;;;;;16.73;9.25;;;;;;;;;;5094348;28;20054;-84
2021/07/18 21:56:10;;;;;;;12.65;8.20;;;;;;;;;;5094694;28;20021;-85
2021/07/18 21:58:36;;;;;;;13.60;9.23;;;;;;;;;;5095365;28;20020;-85
2021/07/18 22:01:04;;;;;;;14.57;8.73;;;;;;;;;;5094850;28;20474;-85
2021/07/18 22:03:29;;;;;;;16.35;10.05;;;;;;;;;;5093085;28;20515;-84
2021/07/18 22:05:55;;;;;;;14.73;9.52;;;;;;;;;;5094285;28;20051;-84
2021/07/18 22:08:21;;;;;;;15.07;10.02;;;;;;;;;;5094557;28;20107;-84
2021/07/18 22:10:47;;;;;;;14.88;9.27;;;;;;;;;;5094217;28;20111;-85
2021/07/18 22:13:12;;;;;;;17.30;11.55;;;;;;;;;;5093034;28;20462;-85
2021/07/18 22:15:41;;;;;;;14.95;10.90;;;;;;;;;;5094072;28;20115;-85
2021/07/18 22:18:08;;;;;;;17.20;10.98;;;;;;;;;;5094229;28;20022;-84
2021/07/18 22:20:34;;;;;;;14.68;11.32;;;;;;;;;;5094118;28;20158;-84
2021/07/18 22:23:00;;;;;;;14.82;9.68;;;;;;;;;;5094164;28;20027;-84
2021/07/18 22:25:26;;;;;;;18.70;10.20;;;;;;;;;;5094102;28;20368;-85
2021/07/18 22:27:53;;;;;;;13.18;9.18;;;;;;;;;;5094419;28;20032;-85
2021/07/18 22:30:20;;;;;;;14.60;9.90;;;;;;;;;;5093757;28;20074;-84
2021/07/18 22:32:48;;;;;;;14.60;10.45;;;;;;;;;;5094118;28;20047;-85
2021/07/18 22:35:18;;;;;;;14.43;9.57;;;;;;;;;;5093815;28;20032;-86
2021/07/18 22:37:45;;;;;;;15.70;10.32;;;;;;;;;;5094250;28;20356;-85
2021/07/18 22:40:13;;;;;;;15.77;9.57;;;;;;;;;;5093858;28;20467;-85
2021/07/18 22:42:39;;;;;;;14.18;9.45;;;;;;;;;;5093901;28;20024;-86
2021/07/18 22:45:07;;;;;;;11.57;8.60;;;;;;;;;;5092564;28;20478;-85
2021/07/18 22:47:36;;;;;;;14.85;9.52;;;;;;;;;;5093913;28;20035;-85
2021/07/18 22:50:04;;;;;;;;;;;;;;;;;;5094305;28;20024;-85
2021/07/18 22:52:30;;;;;;;14.90;8.98;;;;;;;;;;5096806;28;20391;-84
2021/07/18 22:54:55;;;;;;;14.75;10.80;;;;;;;;;;5107705;28;20040;-84
2021/07/18 22:57:21;;;;;;;13.73;9.82;;;;;;;;;;5105582;28;20047;-85
2021/07/18 22:59:47;;;;;;;15.45;9.00;;;;;;;;;;5106799;28;20024;-85
2021/07/18 23:02:12;;;;;;;16.52;10.65;;;;;;;;;;5114287;28;20481;-84
2021/07/18 23:04:38;;;;;;;17.48;9.77;;;;;;;;;;5112942;28;20032;-86
2021/07/18 23:07:05;;;;;;;14.18;9.90;;;;;;;;;;5114147;28;20028;-85
2021/07/18 23:09:30;;;;;;;18.52;14.65;;;;;;;;;;5113956;28;20371;-85
2021/07/18 23:11:56;;;;;;;20.95;11.40;;;;;;;;;;5114020;28;20056;-84
2021/07/18 23:14:22;;;;;;;20.98;11.40;;;;;;;;;;5113815;28;20532;-85
2021/07/18 23:16:48;;;;;;;16.98;11.93;;;;;;;;;;5113886;28;20068;-84
2021/07/18 23:19:13;;;;;;;17.38;11.75;;;;;;;;;;5113809;28;20055;-84
2021/07/18 23:21:39;;;;;;;16.83;12.07;;;;;;;;;;5113950;28;20024;-84
2021/07/18 23:24:05;;;;;;;17.15;12.18;;;;;;;;;;5113901;28;20411;-84
2021/07/18 23:26:31;;;;;;;20.17;14.10;;;;;;;;;;5113684;28;20100;-84
2021/07/18 23:28:56;;;;;;;19.42;13.32;;;;;;;;;;5112628;28;20142;-84
2021/07/18 23:31:22;;;;;;;17.85;12.10;;;;;;;;;;5112514;28;20030;-85
2021/07/18 23:33:48;;;;;;;19.15;13.38;;;;;;;;;;5113572;28;20020;-85
2021/07/18 23:36:13;;;;;;;17.70;12.43;;;;;;;;;;5113646;28;20034;-85
2021/07/18 23:38:39;;;;;;;20.00;12.10;;;;;;;;;;5113751;28;20024;-85
2021/07/18 23:41:05;;;;;;;14.70;10.85;;;;;;;;;;5114661;28;20455;-84
2021/07/18 23:43:31;;;;;;;16.63;10.50;;;;;;;;;;5116094;28;20047;-84
2021/07/18 23:45:57;;;;;;;14.52;9.93;;;;;;;;;;5117399;28;20020;-85
2021/07/18 23:48:22;;;;;;;16.10;10.73;;;;;;;;;;5117683;28;20103;-84
2021/07/18 23:50:48;;;;;;;16.52;11.13;;;;;;;;;;5115974;28;20543;-84
2021/07/18 23:53:13;;;;;;;16.67;11.60;;;;;;;;;;5117441;28;20085;-83
2021/07/18 23:55:39;;;;;;;20.25;12.88;;;;;;;;;;5117086;28;20047;-84
2021/07/18 23:58:05;;;;;;;18.55;14.10;;;;;;;;;;5117389;28;20388;-84
